createdAt,value
2022-11-06T00:01:48.488Z,7.90
2022-11-06T00:04:53.518Z,7.90
2022-11-06T00:07:56.157Z,7.97
2022-11-06T00:11:00.060Z,7.93
2022-11-06T00:14:05.796Z,7.94
2022-11-06T00:17:09.528Z,7.97
2022-11-06T00:20:14.446Z,7.96
2022-11-06T00:23:18.001Z,8.00
2022-11-06T00:26:26.221Z,7.98
2022-11-06T00:29:29.779Z,8.00
2022-11-06T00:32:33.859Z,7.96
2022-11-06T00:35:41.467Z,7.95
2022-11-06T00:38:45.784Z,7.99
2022-11-06T00:41:49.361Z,7.95
2022-11-06T00:44:52.982Z,7.93
2022-11-06T00:47:57.355Z,7.96
2022-11-06T00:51:06.357Z,7.92
2022-11-06T00:54:13.691Z,7.93
2022-11-06T00:57:17.300Z,7.97
2022-11-06T01:00:22.522Z,7.93
2022-11-06T01:03:26.102Z,7.95
2022-11-06T01:06:35.629Z,7.93
2022-11-06T01:09:39.349Z,7.87
2022-11-06T01:12:42.903Z,7.84
2022-11-06T01:15:46.550Z,7.81
2022-11-06T01:18:50.902Z,7.82
2022-11-06T01:21:55.873Z,7.89
2022-11-06T01:24:59.643Z,8.00
2022-11-06T01:28:03.358Z,7.91
2022-11-06T01:31:09.143Z,7.93
2022-11-06T01:34:14.176Z,7.89
2022-11-06T01:37:19.142Z,7.93
2022-11-06T01:40:22.781Z,7.95
2022-11-06T01:43:46.549Z,7.94
2022-11-06T01:46:50.113Z,7.98
2022-11-06T01:50:00.743Z,7.98
2022-11-06T01:53:06.822Z,7.99
2022-11-06T01:56:14.441Z,8.02
2022-11-06T01:59:22.487Z,8.06
2022-11-06T02:02:26.300Z,8.05
2022-11-06T02:05:30.272Z,8.06
2022-11-06T02:08:36.167Z,8.05
2022-11-06T02:11:40.432Z,8.06
2022-11-06T02:15:02.547Z,8.08
2022-11-06T02:18:45.787Z,8.09
2022-11-06T02:22:27.113Z,8.10
2022-11-06T02:25:47.448Z,8.13
2022-11-06T02:28:59.145Z,8.09
2022-11-06T02:32:12.087Z,8.16
2022-11-06T02:35:25.565Z,8.15
2022-11-06T02:38:35.969Z,8.15
2022-11-06T02:41:45.624Z,8.15
2022-11-06T02:44:56.182Z,8.16
2022-11-06T02:48:02.496Z,8.19
2022-11-06T02:51:10.972Z,8.16
2022-11-06T02:54:19.346Z,8.16
2022-11-06T02:57:25.847Z,8.16
2022-11-06T03:00:32.490Z,8.15
2022-11-06T03:03:42.466Z,8.17
2022-11-06T03:06:54.018Z,8.14
2022-11-06T03:09:58.448Z,8.19
2022-11-06T03:13:14.580Z,8.13
2022-11-06T03:16:34.542Z,8.14
2022-11-06T03:19:49.664Z,8.16
2022-11-06T03:23:04.369Z,8.16
2022-11-06T03:26:17.239Z,8.19
2022-11-06T03:29:31.402Z,8.15
2022-11-06T03:32:49.074Z,8.18
2022-11-06T03:35:59.326Z,8.17
2022-11-06T03:39:09.805Z,8.15
2022-11-06T03:42:20.533Z,8.17
2022-11-06T03:45:28.819Z,8.18
2022-11-06T03:48:40.854Z,8.15
2022-11-06T03:51:51.294Z,8.08
2022-11-06T03:55:02.258Z,8.03
2022-11-06T03:58:12.405Z,7.91
2022-11-06T04:01:22.644Z,7.89
2022-11-06T04:04:36.440Z,7.84
2022-11-06T04:08:07.676Z,7.85
2022-11-06T04:11:34.317Z,7.78
2022-11-06T04:14:42.210Z,7.74
2022-11-06T04:17:45.832Z,7.75
2022-11-06T04:21:25.953Z,7.78
2022-11-06T04:25:05.003Z,7.80
2022-11-06T04:28:26.987Z,7.85
2022-11-06T04:31:43.406Z,7.79
2022-11-06T04:34:56.695Z,7.75
2022-11-06T04:38:09.743Z,7.72
2022-11-06T04:41:34.643Z,7.69
2022-11-06T04:44:47.850Z,7.70
2022-11-06T04:47:54.932Z,7.80
2022-11-06T04:51:04.464Z,7.82
2022-11-06T04:54:12.070Z,7.83
2022-11-06T04:57:15.865Z,7.82
2022-11-06T05:00:20.067Z,7.84
2022-11-06T05:03:23.630Z,7.81
2022-11-06T05:06:30.138Z,7.82
2022-11-06T05:09:35.390Z,7.84
2022-11-06T05:12:39.074Z,7.80
2022-11-06T05:15:43.026Z,7.83
2022-11-06T05:18:46.631Z,7.89
2022-11-06T05:22:07.576Z,7.84
2022-11-06T05:25:12.563Z,7.81
2022-11-06T05:28:16.304Z,7.85
2022-11-06T05:31:20.120Z,7.84
2022-11-06T05:34:23.874Z,7.84
2022-11-06T05:37:28.824Z,7.84
2022-11-06T05:40:33.756Z,7.85
2022-11-06T05:43:37.422Z,7.86
2022-11-06T05:46:49.932Z,7.88
2022-11-06T05:49:53.855Z,7.84
2022-11-06T05:52:57.509Z,7.69
2022-11-06T05:56:02.533Z,7.61
2022-11-06T05:59:06.130Z,7.52
2022-11-06T06:02:10.476Z,7.45
2022-11-06T06:05:14.757Z,7.41
2022-11-06T06:08:18.903Z,7.46
2022-11-06T06:11:23.851Z,7.46
2022-11-06T06:14:27.534Z,7.43
2022-11-06T06:17:31.106Z,7.44
2022-11-06T06:20:35.310Z,7.45
2022-11-06T06:23:38.888Z,7.48
2022-11-06T06:26:43.925Z,7.42
2022-11-06T06:29:47.625Z,7.42
2022-11-06T06:32:52.788Z,7.39
2022-11-06T06:35:56.509Z,7.41
2022-11-06T06:39:00.242Z,7.44
2022-11-06T06:42:05.309Z,7.49
2022-11-06T06:45:09.515Z,7.50
2022-11-06T06:48:13.427Z,7.56
2022-11-06T06:51:23.555Z,7.62
2022-11-06T06:54:27.720Z,7.61
2022-11-06T06:57:32.929Z,7.70
2022-11-06T07:00:36.543Z,7.67
2022-11-06T07:03:41.084Z,7.72
2022-11-06T07:06:44.589Z,7.73
2022-11-06T07:09:48.669Z,7.71
2022-11-06T07:12:53.577Z,7.75
2022-11-06T07:15:57.317Z,7.75
2022-11-06T07:19:01.888Z,7.79
2022-11-06T07:22:05.450Z,7.81
2022-11-06T07:25:10.161Z,7.87
2022-11-06T07:28:16.040Z,7.92
2022-11-06T07:31:19.912Z,7.93
2022-11-06T07:34:24.924Z,7.96
2022-11-06T07:37:28.611Z,7.96
2022-11-06T07:40:32.260Z,7.99
2022-11-06T07:43:38.297Z,8.00
2022-11-06T07:46:41.899Z,8.01
2022-11-06T07:49:50.568Z,7.97
2022-11-06T07:52:54.824Z,7.96
2022-11-06T07:55:58.626Z,7.94
2022-11-06T07:59:03.659Z,8.02
2022-11-06T08:02:07.717Z,8.03
2022-11-06T08:05:11.630Z,8.03
2022-11-06T08:08:15.958Z,8.11
2022-11-06T08:11:19.942Z,8.01
2022-11-06T08:14:25.132Z,8.11
2022-11-06T08:17:30.158Z,8.26
2022-11-06T08:20:33.913Z,8.31
2022-11-06T08:23:38.978Z,8.30
2022-11-06T08:26:42.998Z,8.36
2022-11-06T08:29:48.058Z,8.35
2022-11-06T08:32:51.928Z,8.41
2022-11-06T08:35:57.449Z,8.46
2022-11-06T08:39:01.057Z,8.51
2022-11-06T08:42:06.377Z,8.57
2022-11-06T08:45:12.366Z,8.52
2022-11-06T08:48:18.388Z,8.62
2022-11-06T08:51:26.201Z,8.73
2022-11-06T08:54:29.877Z,8.81
2022-11-06T08:57:33.517Z,8.92
2022-11-06T09:00:38.935Z,9.01
2022-11-06T09:03:42.664Z,8.94
2022-11-06T09:06:46.150Z,9.02
2022-11-06T09:09:49.786Z,9.03
2022-11-06T09:12:53.873Z,9.00
2022-11-06T09:15:59.117Z,9.18
2022-11-06T09:19:02.773Z,9.07
2022-11-06T09:22:06.317Z,9.01
2022-11-06T09:25:11.489Z,9.03
2022-11-06T09:28:15.040Z,9.08
2022-11-06T09:31:19.986Z,9.13
2022-11-06T09:34:23.519Z,9.41
2022-11-06T09:37:27.154Z,9.75
2022-11-06T09:40:35.659Z,9.67
2022-11-06T09:44:05.552Z,9.81
2022-11-06T09:47:21.266Z,9.79
2022-11-06T09:50:33.141Z,9.87
2022-11-06T09:53:43.834Z,9.97
2022-11-06T09:56:55.493Z,10.06
2022-11-06T10:00:01.989Z,10.09
2022-11-06T10:03:17.765Z,10.15
2022-11-06T10:06:24.046Z,10.22
2022-11-06T10:09:27.593Z,10.41
2022-11-06T10:12:54.313Z,10.57
2022-11-06T10:16:10.770Z,10.65
2022-11-06T10:19:26.205Z,10.79
2022-11-06T10:22:40.203Z,11.19
2022-11-06T10:26:01.047Z,11.14
2022-11-06T10:29:58.534Z,11.42
2022-11-06T10:33:35.393Z,10.90
2022-11-06T10:36:50.105Z,10.63
2022-11-06T10:39:58.068Z,10.80
2022-11-06T10:43:26.535Z,10.84
2022-11-06T10:46:37.325Z,11.04
2022-11-06T10:49:49.293Z,11.19
2022-11-06T10:53:02.158Z,11.29
2022-11-06T10:56:29.309Z,11.23
2022-11-06T10:59:33.667Z,11.21
2022-11-06T11:02:44.838Z,11.49
2022-11-06T11:05:48.427Z,11.29
2022-11-06T11:08:54.107Z,11.18
2022-11-06T11:11:58.112Z,11.39
2022-11-06T11:15:19.978Z,11.36
2022-11-06T11:18:31.115Z,11.48
2022-11-06T11:21:34.756Z,11.45
2022-11-06T11:25:00.556Z,11.29
2022-11-06T11:28:06.086Z,11.30
2022-11-06T11:31:15.685Z,11.40
2022-11-06T11:34:24.220Z,11.60
2022-11-06T11:37:32.545Z,11.80
2022-11-06T11:40:40.134Z,11.92
2022-11-06T11:43:44.463Z,11.91
2022-11-06T11:46:51.421Z,11.93
2022-11-06T11:49:55.014Z,11.88
2022-11-06T11:53:09.910Z,11.89
2022-11-06T11:56:36.508Z,11.83
2022-11-06T11:59:48.634Z,11.92
2022-11-06T12:02:57.382Z,12.05
2022-11-06T12:06:12.512Z,12.10
2022-11-06T12:09:16.298Z,12.00
2022-11-06T12:12:25.966Z,11.98
2022-11-06T12:15:40.899Z,12.02
2022-11-06T12:18:54.671Z,12.03
2022-11-06T12:22:11.905Z,12.04
2022-11-06T12:25:20.920Z,12.11
2022-11-06T12:28:30.009Z,12.16
2022-11-06T12:31:42.707Z,11.87
2022-11-06T12:34:58.643Z,11.82
2022-11-06T12:38:20.786Z,11.75
2022-11-06T12:41:29.304Z,11.92
2022-11-06T12:44:34.553Z,12.24
2022-11-06T12:47:56.201Z,12.35
2022-11-06T12:51:13.208Z,12.42
2022-11-06T12:54:42.510Z,12.52
2022-11-06T12:58:07.229Z,12.34
2022-11-06T13:01:26.607Z,11.91
2022-11-06T13:04:48.599Z,11.84
2022-11-06T13:08:17.279Z,11.58
2022-11-06T13:11:38.164Z,11.61
2022-11-06T13:14:53.449Z,11.47
2022-11-06T13:18:06.901Z,11.47
2022-11-06T13:21:22.888Z,11.43
2022-11-06T13:24:36.203Z,11.66
2022-11-06T13:27:46.613Z,11.73
2022-11-06T13:30:54.414Z,11.65
2022-11-06T13:34:03.414Z,11.66
2022-11-06T13:37:15.792Z,11.58
2022-11-06T13:40:28.983Z,11.55
2022-11-06T13:43:40.261Z,11.36
2022-11-06T13:46:59.467Z,11.49
2022-11-06T13:50:16.445Z,11.38
2022-11-06T13:53:28.369Z,11.48
2022-11-06T13:56:57.199Z,11.47
2022-11-06T14:00:20.482Z,11.46
2022-11-06T14:04:07.977Z,11.41
2022-11-06T14:07:15.033Z,11.28
2022-11-06T14:10:23.834Z,11.27
2022-11-06T14:13:32.709Z,11.35
2022-11-06T14:16:38.589Z,11.17
2022-11-06T14:20:06.434Z,11.19
2022-11-06T14:23:53.175Z,11.09
2022-11-06T14:26:57.042Z,10.96
2022-11-06T14:30:23.008Z,10.97
2022-11-06T14:34:02.752Z,10.89
2022-11-06T14:37:46.385Z,10.81
2022-11-06T14:40:51.464Z,10.69
2022-11-06T14:43:58.549Z,10.72
2022-11-06T14:47:06.889Z,10.71
2022-11-06T14:50:27.425Z,10.57
2022-11-06T14:53:38.506Z,10.49
2022-11-06T14:56:43.811Z,10.57
2022-11-06T14:59:49.164Z,10.56
2022-11-06T15:02:52.872Z,10.42
2022-11-06T15:06:05.785Z,10.40
2022-11-06T15:09:14.990Z,10.36
2022-11-06T15:12:51.753Z,10.40
2022-11-06T15:16:04.611Z,10.33
2022-11-06T15:19:16.152Z,10.32
2022-11-06T15:22:30.836Z,10.25
2022-11-06T15:25:36.043Z,10.27
2022-11-06T15:28:50.305Z,10.22
2022-11-06T15:32:01.613Z,10.06
2022-11-06T15:35:10.738Z,10.12
2022-11-06T15:38:21.185Z,10.05
2022-11-06T15:41:27.792Z,9.91
2022-11-06T15:44:32.891Z,9.98
2022-11-06T15:47:36.735Z,9.91
2022-11-06T15:50:44.765Z,9.99
2022-11-06T15:53:48.577Z,9.89
2022-11-06T15:56:52.328Z,9.82
2022-11-06T16:00:18.225Z,9.75
2022-11-06T16:03:25.193Z,9.92
2022-11-06T16:06:28.910Z,9.86
2022-11-06T16:09:33.186Z,9.78
2022-11-06T16:12:36.818Z,9.79
2022-11-06T16:15:50.681Z,9.77
2022-11-06T16:18:54.932Z,9.65
2022-11-06T16:22:04.434Z,9.62
2022-11-06T16:25:18.941Z,9.69
2022-11-06T16:28:24.517Z,9.62
2022-11-06T16:31:32.075Z,9.52
2022-11-06T16:34:43.967Z,9.49
2022-11-06T16:37:47.622Z,9.56
2022-11-06T16:40:53.262Z,9.49
2022-11-06T16:44:30.742Z,9.42
2022-11-06T16:47:36.434Z,9.63
2022-11-06T16:50:50.900Z,9.52
2022-11-06T16:54:00.291Z,9.49
2022-11-06T16:57:13.267Z,9.58
2022-11-06T17:00:27.470Z,9.65
2022-11-06T17:03:41.717Z,9.59
2022-11-06T17:06:46.640Z,9.50
2022-11-06T17:09:50.352Z,9.46
2022-11-06T17:12:54.138Z,9.51
2022-11-06T17:16:02.072Z,9.55
2022-11-06T17:19:07.690Z,9.56
2022-11-06T17:22:11.925Z,9.42
2022-11-06T17:25:16.772Z,9.41
2022-11-06T17:28:22.709Z,9.44
2022-11-06T17:31:27.633Z,9.43
2022-11-06T17:34:32.595Z,9.53
2022-11-06T17:37:37.130Z,9.39
2022-11-06T17:40:40.907Z,9.47
2022-11-06T17:43:44.493Z,9.46
2022-11-06T17:46:48.580Z,9.47
2022-11-06T17:49:53.869Z,9.51
2022-11-06T17:52:57.493Z,9.40
2022-11-06T17:56:05.413Z,9.40
2022-11-06T17:59:10.956Z,9.41
2022-11-06T18:02:29.976Z,9.57
2022-11-06T18:05:51.930Z,9.47
2022-11-06T18:08:57.915Z,9.36
2022-11-06T18:12:01.942Z,9.54
2022-11-06T18:15:06.817Z,9.48
2022-11-06T18:18:10.647Z,9.52
2022-11-06T18:21:16.193Z,9.52
2022-11-06T18:24:19.897Z,9.39
2022-11-06T18:27:23.412Z,9.47
2022-11-06T18:30:27.033Z,9.46
2022-11-06T18:33:31.192Z,9.51
2022-11-06T18:36:36.864Z,9.48
2022-11-06T18:39:40.802Z,9.70
2022-11-06T18:42:44.466Z,9.66
2022-11-06T18:45:48.272Z,9.57
2022-11-06T18:48:52.026Z,9.59
2022-11-06T18:51:57.843Z,9.63
2022-11-06T18:55:01.484Z,9.60
2022-11-06T18:58:05.028Z,9.61
2022-11-06T19:01:11.599Z,9.66
2022-11-06T19:04:15.381Z,9.68
2022-11-06T19:07:20.530Z,9.55
2022-11-06T19:10:24.301Z,9.30
2022-11-06T19:13:27.883Z,9.27
2022-11-06T19:16:32.238Z,9.19
2022-11-06T19:19:35.870Z,9.08
2022-11-06T19:22:40.743Z,8.90
2022-11-06T19:25:45.781Z,8.84
2022-11-06T19:28:52.862Z,8.77
2022-11-06T19:32:01.782Z,8.62
2022-11-06T19:35:06.062Z,8.50
2022-11-06T19:38:11.033Z,8.40
2022-11-06T19:41:14.733Z,8.31
2022-11-06T19:44:18.601Z,8.07
2022-11-06T19:47:22.106Z,8.03
2022-11-06T19:50:53.512Z,7.83
2022-11-06T19:53:54.154Z,7.70
2022-11-06T19:57:27.725Z,7.64
2022-11-06T20:00:21.676Z,7.58
2022-11-06T20:03:25.302Z,7.48
2022-11-06T20:06:28.890Z,7.41
2022-11-06T20:09:34.767Z,7.33
2022-11-06T20:12:38.292Z,7.30
2022-11-06T20:15:41.935Z,7.31
2022-11-06T20:18:46.025Z,7.15
2022-11-06T20:21:49.715Z,7.14
2022-11-06T20:24:54.792Z,7.11
2022-11-06T20:27:58.398Z,7.03
2022-11-06T20:31:06.465Z,7.02
2022-11-06T20:34:10.382Z,7.02
2022-11-06T20:37:14.127Z,7.04
2022-11-06T20:40:19.208Z,7.00
2022-11-06T20:43:23.147Z,7.00
2022-11-06T20:46:27.210Z,7.01
2022-11-06T20:49:30.894Z,7.04
2022-11-06T20:52:37.705Z,7.13
2022-11-06T20:55:42.909Z,7.18
2022-11-06T20:58:46.636Z,7.12
2022-11-06T21:01:51.908Z,7.16
2022-11-06T21:04:55.730Z,7.20
2022-11-06T21:07:59.321Z,7.27
2022-11-06T21:11:07.806Z,7.31
2022-11-06T21:14:11.518Z,7.36
2022-11-06T21:17:15.144Z,7.59
2022-11-06T21:20:23.008Z,7.59
2022-11-06T21:23:26.966Z,7.66
2022-11-06T21:26:34.342Z,7.75
2022-11-06T21:29:38.097Z,7.75
2022-11-06T21:32:41.889Z,7.71
2022-11-06T21:35:45.784Z,7.66
2022-11-06T21:38:52.957Z,7.69
2022-11-06T21:41:58.058Z,7.72
2022-11-06T21:45:01.690Z,7.72
2022-11-06T21:48:14.712Z,7.73
2022-11-06T21:51:32.064Z,7.80
2022-11-06T21:54:53.126Z,7.93
2022-11-06T21:57:58.167Z,7.89
2022-11-06T22:01:04.726Z,8.05
2022-11-06T22:04:09.187Z,8.00
2022-11-06T22:07:13.268Z,7.99
2022-11-06T22:10:17.093Z,8.02
2022-11-06T22:13:22.179Z,8.02
2022-11-06T22:16:29.110Z,8.03
2022-11-06T22:19:32.738Z,8.03
2022-11-06T22:22:36.478Z,8.07
2022-11-06T22:25:40.866Z,8.11
2022-11-06T22:28:46.581Z,8.14
2022-11-06T22:31:52.320Z,8.18
2022-11-06T22:34:55.920Z,8.14
2022-11-06T22:38:00.630Z,8.16
2022-11-06T22:41:07.041Z,8.21
2022-11-06T22:44:12.666Z,8.21
2022-11-06T22:47:16.690Z,8.28
2022-11-06T22:50:20.404Z,8.32
2022-11-06T22:53:24.071Z,8.35
2022-11-06T22:56:29.489Z,8.38
2022-11-06T22:59:34.607Z,8.40
2022-11-06T23:02:38.469Z,8.48
2022-11-06T23:05:42.092Z,8.47
2022-11-06T23:08:47.166Z,8.47
2022-11-06T23:11:50.980Z,8.61
2022-11-06T23:14:58.576Z,8.60
2022-11-06T23:18:02.301Z,8.58
2022-11-06T23:21:14.568Z,8.65
2022-11-06T23:24:18.235Z,8.65
2022-11-06T23:27:21.843Z,8.70
2022-11-06T23:30:30.117Z,8.70
2022-11-06T23:33:33.693Z,8.66
2022-11-06T23:36:37.261Z,8.67
2022-11-06T23:39:40.972Z,8.78
2022-11-06T23:42:44.546Z,8.77
2022-11-06T23:46:07.124Z,8.70
2022-11-06T23:49:10.670Z,8.69
2022-11-06T23:52:14.292Z,8.82
2022-11-06T23:55:18.102Z,8.78
2022-11-06T23:58:21.653Z,8.81
